Terminal Aerodrome Forecast
Issued by NWS Green Bay, WI

Home | Current Version | Previous Version | Graphics & Text | Print | Product List | Glossary On
Versions: 1 2 3 4 5 6 7 8 9 10 11 12 13 14 15 16 17 18 19 20 21 22 23 24
000
FTUS43 KGRB 191739
TAFGRB
TAF
KGRB 191739Z 1918/2018 04016G26KT 5SM BR BKN008 OVC070
      TEMPO 1918/1920 3SM -DZ BR BKN010 OVC030
     FM192000 04016G27KT 4SM -RADZ BR OVC010
     FM192200 04017G28KT 3SM -FZRA BR OVC008
     FM200300 03010G18KT P6SM OVC008 PROB30 2003/2004 2SM -FZRA
      OVC003
     FM200600 02009KT P6SM OVC003 PROB30 2010/2011 1SM -FZDZ
     FM201100 03007KT 2SM -FZDZ OVC003
     FM201200 03007KT 1 1/2SM -FZRA OVC003
     FM201700 31004KT 6SM -RA OVC008=

USA.gov is the U.S. government's official web portal to all federal, state and local government web resources and services.